createdAt,value
2023-07-12T00:01:27.400Z,23.89
2023-07-12T00:03:54.730Z,23.81
2023-07-12T00:06:33.600Z,23.80
2023-07-12T00:09:00.302Z,23.82
2023-07-12T00:11:27.143Z,23.75
2023-07-12T00:13:58.605Z,23.87
2023-07-12T00:16:34.645Z,23.88
2023-07-12T00:19:02.169Z,23.72
2023-07-12T00:21:31.024Z,23.69
2023-07-12T00:24:03.275Z,23.63
2023-07-12T00:26:32.718Z,23.61
2023-07-12T00:29:03.716Z,23.54
2023-07-12T00:31:32.580Z,23.54
2023-07-12T00:34:02.119Z,23.62
2023-07-12T00:36:34.144Z,23.39
2023-07-12T00:39:02.947Z,23.42
2023-07-12T00:41:41.898Z,23.31
2023-07-12T00:44:19.866Z,23.21
2023-07-12T00:46:49.902Z,23.04
2023-07-12T00:49:16.871Z,23.21
2023-07-12T00:51:59.655Z,23.21
2023-07-12T00:55:00.455Z,23.05
2023-07-12T00:57:30.363Z,23.11
2023-07-12T01:00:12.756Z,22.99
2023-07-12T01:02:48.807Z,23.01
2023-07-12T01:05:19.557Z,22.78
2023-07-12T01:07:48.769Z,22.93
2023-07-12T01:10:15.587Z,23.04
2023-07-12T01:12:42.273Z,22.95
2023-07-12T01:15:12.002Z,22.72
2023-07-12T01:17:38.755Z,22.64
2023-07-12T01:20:08.960Z,22.48
2023-07-12T01:22:38.264Z,22.45
2023-07-12T01:25:07.307Z,22.35
2023-07-12T01:27:34.403Z,22.29
2023-07-12T01:30:03.521Z,22.47
2023-07-12T01:32:31.887Z,22.61
2023-07-12T01:34:58.682Z,22.62
2023-07-12T01:37:25.718Z,22.60
2023-07-12T01:39:52.398Z,22.60
2023-07-12T01:42:19.042Z,22.45
2023-07-12T01:44:45.750Z,22.53
2023-07-12T01:47:12.380Z,22.30
2023-07-12T01:49:41.252Z,22.29
2023-07-12T01:52:08.556Z,22.31
2023-07-12T01:54:37.372Z,22.20
2023-07-12T01:57:04.518Z,21.96
2023-07-12T01:59:36.606Z,22.05
2023-07-12T02:04:35.508Z,22.26
2023-07-12T02:07:05.618Z,22.26
2023-07-12T02:09:38.759Z,22.29
2023-07-12T02:12:05.974Z,22.43
2023-07-12T02:14:32.646Z,22.43
2023-07-12T02:17:02.094Z,22.46
2023-07-12T02:19:34.703Z,22.29
2023-07-12T02:22:03.974Z,22.19
2023-07-12T02:24:33.670Z,22.41
2023-07-12T02:27:00.366Z,22.47
2023-07-12T02:29:29.223Z,22.42
2023-07-12T02:32:00.666Z,22.44
2023-07-12T02:34:27.569Z,22.46
2023-07-12T02:36:56.989Z,22.45
2023-07-12T02:39:25.998Z,22.30
2023-07-12T02:41:52.857Z,22.19
2023-07-12T02:44:19.534Z,22.39
2023-07-12T02:46:46.183Z,22.37
2023-07-12T02:49:17.047Z,22.27
2023-07-12T02:51:44.476Z,22.23
2023-07-12T02:54:16.400Z,22.03
2023-07-12T02:56:45.421Z,21.90
2023-07-12T02:59:12.138Z,22.03
2023-07-12T03:01:39.043Z,22.11
2023-07-12T03:04:07.987Z,22.09
2023-07-12T03:06:37.675Z,22.07
2023-07-12T03:09:06.427Z,22.11
2023-07-12T03:11:35.774Z,21.74
2023-07-12T03:14:03.139Z,21.65
2023-07-12T03:16:32.993Z,21.59
2023-07-12T03:19:02.950Z,21.78
2023-07-12T03:21:29.823Z,21.77
2023-07-12T03:23:56.521Z,21.73
2023-07-12T03:26:27.410Z,21.86
2023-07-12T03:28:54.121Z,21.83
2023-07-12T03:31:20.962Z,21.66
2023-07-12T03:33:48.078Z,21.98
2023-07-12T03:36:25.940Z,22.02
2023-07-12T03:38:53.837Z,21.88
2023-07-12T03:41:24.481Z,21.85
2023-07-12T03:43:53.712Z,21.73
2023-07-12T03:46:25.750Z,21.75
2023-07-12T03:48:52.778Z,21.75
2023-07-12T03:51:23.960Z,21.99
2023-07-12T03:53:53.371Z,21.89
2023-07-12T03:56:20.212Z,21.81
2023-07-12T03:58:51.698Z,21.86
2023-07-12T04:01:19.429Z,22.00
2023-07-12T04:03:48.666Z,21.99
2023-07-12T04:06:15.817Z,21.95
2023-07-12T04:08:42.573Z,22.10
2023-07-12T04:11:25.523Z,22.26
2023-07-12T04:13:54.863Z,22.35
2023-07-12T04:16:27.840Z,22.37
2023-07-12T04:18:59.421Z,22.24
2023-07-12T04:21:26.568Z,22.44
2023-07-12T04:23:55.947Z,22.40
2023-07-12T04:26:25.790Z,22.32
2023-07-12T04:28:53.213Z,22.15
2023-07-12T04:31:23.485Z,22.28
2023-07-12T04:33:53.679Z,22.47
2023-07-12T04:36:20.792Z,22.58
2023-07-12T04:38:50.319Z,22.69
2023-07-12T04:41:18.321Z,22.73
2023-07-12T04:43:45.108Z,22.90
2023-07-12T04:46:11.989Z,22.97
2023-07-12T04:48:38.658Z,22.98
2023-07-12T04:51:08.323Z,22.93
2023-07-12T04:53:37.864Z,22.98
2023-07-12T04:56:05.189Z,22.98
2023-07-12T04:58:34.627Z,22.99
2023-07-12T05:01:03.372Z,22.96
2023-07-12T05:03:33.480Z,22.91
2023-07-12T05:06:13.650Z,22.86
2023-07-12T05:08:51.813Z,22.78
2023-07-12T05:11:18.981Z,22.72
2023-07-12T05:13:48.097Z,22.80
2023-07-12T05:16:14.910Z,22.91
2023-07-12T05:18:42.107Z,22.66
2023-07-12T05:21:10.659Z,22.96
2023-07-12T05:23:38.540Z,23.14
2023-07-12T05:26:05.166Z,23.04
2023-07-12T05:28:36.454Z,23.08
2023-07-12T05:31:13.922Z,23.16
2023-07-12T05:33:47.696Z,23.19
2023-07-12T05:36:15.570Z,23.22
2023-07-12T05:38:42.919Z,23.30
2023-07-12T05:41:14.877Z,23.19
2023-07-12T05:43:42.782Z,23.33
2023-07-12T05:46:09.681Z,23.61
2023-07-12T05:48:41.449Z,23.70
2023-07-12T05:51:09.752Z,23.76
2023-07-12T05:53:36.776Z,23.92
2023-07-12T05:56:07.860Z,23.83
2023-07-12T05:58:36.504Z,23.91
2023-07-12T06:01:04.358Z,24.03
2023-07-12T06:03:33.910Z,24.15
2023-07-12T06:06:01.393Z,24.30
2023-07-12T06:08:30.857Z,24.33
2023-07-12T06:10:57.516Z,24.44
2023-07-12T06:13:24.315Z,24.40
2023-07-12T06:15:53.469Z,24.54
2023-07-12T06:18:22.735Z,24.56
2023-07-12T06:20:56.382Z,24.55
2023-07-12T06:23:23.044Z,24.51
2023-07-12T06:25:49.906Z,24.70
2023-07-12T06:28:18.725Z,24.71
2023-07-12T06:30:47.883Z,24.61
2023-07-12T06:33:16.903Z,24.78
2023-07-12T06:35:48.428Z,24.90
2023-07-12T06:38:18.492Z,24.93
2023-07-12T06:40:46.777Z,24.94
2023-07-12T06:43:15.776Z,24.98
2023-07-12T06:45:46.300Z,25.18
2023-07-12T06:48:15.619Z,25.27
2023-07-12T06:50:47.830Z,25.24
2023-07-12T06:53:14.423Z,25.34
2023-07-12T06:55:46.791Z,25.43
2023-07-12T06:58:16.472Z,25.00
2023-07-12T07:00:44.818Z,25.23
2023-07-12T07:03:13.640Z,25.05
2023-07-12T07:05:42.251Z,25.13
2023-07-12T07:08:09.042Z,25.36
2023-07-12T07:10:36.152Z,25.59
2023-07-12T07:13:02.839Z,25.75
2023-07-12T07:15:32.008Z,25.70
2023-07-12T07:18:05.751Z,25.82
2023-07-12T07:20:33.164Z,25.82
2023-07-12T07:23:00.342Z,25.79
2023-07-12T07:25:29.485Z,25.92
2023-07-12T07:27:59.619Z,25.84
2023-07-12T07:30:29.304Z,25.99
2023-07-12T07:32:58.417Z,26.10
2023-07-12T07:35:27.717Z,26.08
2023-07-12T07:37:57.102Z,26.20
2023-07-12T07:40:23.746Z,26.27
2023-07-12T07:42:53.235Z,26.31
2023-07-12T07:45:19.951Z,26.32
2023-07-12T07:47:46.682Z,26.40
2023-07-12T07:50:16.052Z,26.49
2023-07-12T07:52:42.761Z,26.56
2023-07-12T07:55:11.989Z,26.66
2023-07-12T07:57:40.791Z,26.74
2023-07-12T08:00:11.749Z,26.89
2023-07-12T08:02:39.478Z,26.97
2023-07-12T08:05:09.120Z,27.18
2023-07-12T08:07:47.670Z,27.33
2023-07-12T08:10:19.094Z,27.36
2023-07-12T08:12:49.471Z,27.52
2023-07-12T08:15:19.528Z,27.49
2023-07-12T08:17:48.752Z,27.61
2023-07-12T08:20:16.371Z,27.67
2023-07-12T08:22:43.255Z,27.63
2023-07-12T08:25:12.910Z,27.46
2023-07-12T08:27:45.228Z,27.59
2023-07-12T08:30:15.833Z,27.55
2023-07-12T08:32:44.747Z,27.76
2023-07-12T08:35:13.708Z,27.84
2023-07-12T08:37:42.372Z,28.02
2023-07-12T08:40:14.443Z,28.12
2023-07-12T08:42:45.433Z,28.26
2023-07-12T08:45:18.434Z,28.18
2023-07-12T08:47:47.053Z,28.28
2023-07-12T08:50:15.335Z,28.30
2023-07-12T08:52:43.535Z,28.43
2023-07-12T08:55:15.885Z,28.57
2023-07-12T08:57:43.071Z,28.81
2023-07-12T09:00:20.951Z,28.93
2023-07-12T09:02:50.024Z,28.95
2023-07-12T09:05:20.970Z,28.62
2023-07-12T09:08:03.152Z,28.71
2023-07-12T09:10:46.035Z,28.95
2023-07-12T09:13:16.638Z,29.26
2023-07-12T09:15:56.242Z,29.33
2023-07-12T09:18:35.422Z,29.52
2023-07-12T09:21:16.521Z,29.72
2023-07-12T09:23:45.337Z,29.89
2023-07-12T09:26:21.332Z,29.85
2023-07-12T09:28:48.232Z,29.82
2023-07-12T09:31:21.491Z,29.91
2023-07-12T09:33:56.050Z,29.91
2023-07-12T09:36:22.720Z,29.95
2023-07-12T09:38:49.630Z,30.02
2023-07-12T09:41:21.786Z,30.15
2023-07-12T09:43:59.170Z,30.44
2023-07-12T09:46:32.170Z,30.53
2023-07-12T09:49:10.326Z,30.33
2023-07-12T09:51:45.013Z,30.35
2023-07-12T09:54:39.749Z,30.51
2023-07-12T09:57:41.786Z,30.46
2023-07-12T10:00:17.527Z,30.55
2023-07-12T10:03:24.133Z,30.38
2023-07-12T10:06:01.254Z,30.50
2023-07-12T10:08:42.163Z,30.69
2023-07-12T10:11:23.073Z,30.88
2023-07-12T10:13:58.463Z,30.63
2023-07-12T10:16:35.905Z,30.97
2023-07-12T10:19:24.490Z,31.10
2023-07-12T10:21:53.609Z,31.20
2023-07-12T10:24:25.961Z,31.28
2023-07-12T10:26:56.389Z,31.39
2023-07-12T10:29:31.795Z,31.50
2023-07-12T10:32:06.179Z,31.41
2023-07-12T10:34:35.750Z,31.62
2023-07-12T10:37:15.957Z,31.66
2023-07-12T10:39:53.148Z,31.76
2023-07-12T10:42:43.448Z,31.68
2023-07-12T10:45:26.959Z,31.69
2023-07-12T10:47:55.593Z,31.76
2023-07-12T10:50:44.749Z,31.85
2023-07-12T10:53:36.306Z,31.86
2023-07-12T10:56:09.475Z,32.22
2023-07-12T10:58:52.206Z,32.09
2023-07-12T11:01:46.788Z,32.13
2023-07-12T11:04:16.188Z,32.24
2023-07-12T11:07:02.594Z,32.17
2023-07-12T11:09:49.844Z,31.99
2023-07-12T11:12:31.500Z,32.29
2023-07-12T11:15:06.691Z,32.41
2023-07-12T11:17:55.560Z,32.65
2023-07-12T11:20:25.629Z,32.75
2023-07-12T11:23:00.483Z,32.42
2023-07-12T11:25:45.811Z,32.59
2023-07-12T11:28:21.802Z,32.62
2023-07-12T11:31:12.796Z,32.50
2023-07-12T11:33:46.748Z,32.64
2023-07-12T11:36:26.161Z,32.64
2023-07-12T11:38:55.233Z,32.73
2023-07-12T11:41:27.349Z,32.93
2023-07-12T11:44:02.593Z,33.15
2023-07-12T11:46:37.051Z,33.20
2023-07-12T11:49:18.761Z,32.85
2023-07-12T11:51:49.128Z,32.46
2023-07-12T11:54:26.312Z,32.30
2023-07-12T11:56:57.059Z,32.43
2023-07-12T11:59:32.768Z,32.17
2023-07-12T12:02:00.657Z,31.90
2023-07-12T12:04:32.614Z,32.41
2023-07-12T12:07:08.461Z,32.71
2023-07-12T12:09:39.097Z,32.96
2023-07-12T12:12:08.697Z,32.84
2023-07-12T12:14:41.651Z,33.17
2023-07-12T12:17:16.401Z,33.34
2023-07-12T12:19:50.922Z,32.94
2023-07-12T12:22:26.863Z,33.29
2023-07-12T12:25:00.592Z,33.22
2023-07-12T12:27:38.824Z,32.71
2023-07-12T12:30:32.432Z,33.00
2023-07-12T12:33:26.933Z,33.16
2023-07-12T12:36:01.331Z,33.32
2023-07-12T12:38:36.950Z,33.07
2023-07-12T12:41:20.209Z,33.16
2023-07-12T12:44:09.156Z,33.05
2023-07-12T12:54:30.672Z,33.14
2023-07-12T12:58:11.910Z,33.34
2023-07-12T13:00:31.667Z,33.64
2023-07-12T13:08:44.359Z,33.32
2023-07-12T13:18:27.579Z,32.11
2023-07-12T13:20:54.716Z,32.06
2023-07-12T13:23:37.933Z,32.35
2023-07-12T13:26:13.076Z,32.53
2023-07-12T13:28:39.738Z,32.49
2023-07-12T13:31:11.266Z,32.48
2023-07-12T13:33:40.666Z,32.45
2023-07-12T13:36:26.662Z,32.49
2023-07-12T13:46:31.520Z,32.48
2023-07-12T13:49:00.030Z,32.50
2023-07-12T13:51:29.393Z,32.88
2023-07-12T13:53:56.700Z,33.16
2023-07-12T14:04:23.396Z,33.61
2023-07-12T14:13:25.610Z,33.26
2023-07-12T14:15:52.660Z,33.09
2023-07-12T14:18:21.741Z,33.02
2023-07-12T14:20:49.712Z,33.04
2023-07-12T14:23:21.613Z,33.21
2023-07-12T14:25:51.094Z,33.28
2023-07-12T14:28:17.901Z,33.20
2023-07-12T14:31:01.861Z,33.40
2023-07-12T14:33:36.987Z,33.39
2023-07-12T14:36:04.601Z,33.58
2023-07-12T14:38:33.572Z,33.74
2023-07-12T14:41:04.066Z,33.89
2023-07-12T14:43:33.338Z,33.84
2023-07-12T14:46:02.802Z,34.08
2023-07-12T14:48:32.810Z,34.08
2023-07-12T14:51:02.504Z,34.11
2023-07-12T14:53:29.146Z,34.06
2023-07-12T14:56:00.686Z,33.70
2023-07-12T14:58:27.456Z,33.46
2023-07-12T15:00:56.705Z,33.38
2023-07-12T15:03:25.013Z,33.47
2023-07-12T15:05:53.982Z,33.78
2023-07-12T15:08:29.909Z,34.17
2023-07-12T15:10:58.369Z,34.33
2023-07-12T15:13:27.610Z,34.64
2023-07-12T15:15:57.037Z,35.11
2023-07-12T15:18:25.856Z,34.97
2023-07-12T15:21:05.713Z,35.07
2023-07-12T15:23:35.882Z,35.39
2023-07-12T15:26:02.734Z,35.50
2023-07-12T15:28:33.007Z,35.75
2023-07-12T15:31:02.045Z,35.88
2023-07-12T15:33:32.149Z,35.91
2023-07-12T15:36:05.175Z,35.87
2023-07-12T15:38:32.034Z,36.36
2023-07-12T15:41:13.259Z,36.81
2023-07-12T15:43:42.691Z,37.01
2023-07-12T15:46:21.619Z,37.13
2023-07-12T15:48:50.898Z,36.37
2023-07-12T15:51:35.734Z,36.13
2023-07-12T15:54:22.520Z,35.94
2023-07-12T15:56:52.344Z,35.59
2023-07-12T15:59:21.662Z,35.21
2023-07-12T16:01:48.544Z,34.45
2023-07-12T16:04:24.115Z,34.40
2023-07-12T16:06:51.199Z,34.18
2023-07-12T16:09:20.041Z,33.98
2023-07-12T16:11:51.469Z,33.82
2023-07-12T16:14:23.452Z,33.80
2023-07-12T16:16:53.254Z,33.60
2023-07-12T16:19:23.134Z,33.43
2023-07-12T16:21:50.077Z,33.20
2023-07-12T16:24:19.710Z,32.88
2023-07-12T16:26:47.018Z,32.65
2023-07-12T16:29:14.118Z,32.57
2023-07-12T16:31:54.515Z,32.58
2023-07-12T16:34:26.470Z,32.57
2023-07-12T16:36:58.832Z,32.58
2023-07-12T16:39:26.283Z,32.41
2023-07-12T16:41:53.925Z,32.32
2023-07-12T16:44:25.344Z,32.12
2023-07-12T16:46:52.760Z,32.02
2023-07-12T16:49:22.710Z,32.11
2023-07-12T16:52:04.515Z,31.94
2023-07-12T16:54:35.662Z,31.59
2023-07-12T16:57:02.783Z,31.67
2023-07-12T16:59:32.856Z,31.46
2023-07-12T17:02:08.934Z,31.54
2023-07-12T17:04:40.197Z,31.50
2023-07-12T17:07:12.292Z,31.04
2023-07-12T17:09:38.878Z,30.95
2023-07-12T17:12:13.335Z,30.82
2023-07-12T17:14:42.050Z,30.94
2023-07-12T17:17:11.734Z,30.80
2023-07-12T17:19:38.577Z,30.62
2023-07-12T17:22:11.694Z,30.60
2023-07-12T17:24:39.107Z,30.67
2023-07-12T17:27:11.644Z,30.69
2023-07-12T17:29:40.715Z,30.61
2023-07-12T17:32:17.147Z,30.74
2023-07-12T17:34:46.007Z,30.63
2023-07-12T17:37:18.047Z,30.59
2023-07-12T17:39:58.951Z,30.66
2023-07-12T17:42:29.897Z,30.73
2023-07-12T17:45:03.010Z,30.69
2023-07-12T17:47:33.589Z,30.77
2023-07-12T17:50:05.319Z,30.60
2023-07-12T17:52:33.665Z,30.53
2023-07-12T17:55:02.917Z,30.50
2023-07-12T17:57:32.225Z,30.37
2023-07-12T17:59:59.835Z,30.39
2023-07-12T18:02:28.909Z,30.45
2023-07-12T18:04:59.935Z,30.36
2023-07-12T18:07:27.397Z,30.22
2023-07-12T18:09:56.253Z,30.12
2023-07-12T18:12:24.035Z,30.11
2023-07-12T18:14:51.741Z,30.13
2023-07-12T18:17:23.475Z,30.19
2023-07-12T18:19:53.722Z,30.20
2023-07-12T18:22:24.970Z,30.27
2023-07-12T18:24:59.778Z,30.26
2023-07-12T18:27:26.526Z,30.37
2023-07-12T18:29:56.274Z,30.43
2023-07-12T18:32:28.348Z,30.51
2023-07-12T18:34:57.877Z,30.43
2023-07-12T18:37:29.965Z,30.35
2023-07-12T18:39:56.843Z,30.36
2023-07-12T18:42:31.598Z,30.32
2023-07-12T18:44:58.285Z,30.11
2023-07-12T18:47:27.871Z,29.82
2023-07-12T18:49:57.980Z,29.75
2023-07-12T18:52:26.930Z,29.57
2023-07-12T18:54:53.579Z,29.41
2023-07-12T18:57:23.019Z,29.26
2023-07-12T18:59:54.489Z,29.10
2023-07-12T19:02:23.718Z,29.14
2023-07-12T19:04:50.421Z,28.99
2023-07-12T19:07:31.956Z,28.84
2023-07-12T19:09:58.768Z,28.90
2023-07-12T19:12:29.055Z,28.83
2023-07-12T19:15:02.568Z,28.80
2023-07-12T19:17:37.505Z,28.84
2023-07-12T19:20:04.649Z,28.78
2023-07-12T19:22:32.868Z,28.70
2023-07-12T19:24:59.706Z,28.71
2023-07-12T19:27:42.970Z,28.45
2023-07-12T19:30:15.284Z,28.50
2023-07-12T19:32:42.455Z,28.48
2023-07-12T19:35:25.672Z,28.53
2023-07-12T19:37:55.559Z,28.55
2023-07-12T19:40:25.758Z,28.51
2023-07-12T19:42:54.490Z,28.49
2023-07-12T19:45:28.593Z,28.47
2023-07-12T19:47:56.689Z,28.41
2023-07-12T19:50:26.259Z,28.43
2023-07-12T19:52:53.005Z,28.38
2023-07-12T19:55:30.616Z,28.36
2023-07-12T19:57:59.817Z,28.37
2023-07-12T20:00:31.236Z,28.34
2023-07-12T20:03:02.786Z,28.14
2023-07-12T20:05:34.359Z,28.14
2023-07-12T20:08:01.123Z,28.24
2023-07-12T20:10:27.801Z,28.26
2023-07-12T20:12:58.160Z,28.20
2023-07-12T20:15:25.060Z,28.13
2023-07-12T20:17:53.834Z,27.90
2023-07-12T20:20:25.518Z,27.95
2023-07-12T20:22:57.487Z,27.89
2023-07-12T20:25:29.134Z,27.85
2023-07-12T20:27:58.687Z,27.81
2023-07-12T20:30:28.325Z,27.80
2023-07-12T20:32:55.104Z,27.78
2023-07-12T20:35:24.664Z,27.72
2023-07-12T20:37:54.765Z,27.64
2023-07-12T20:40:21.540Z,27.70
2023-07-12T20:42:55.597Z,27.71
2023-07-12T20:45:24.838Z,27.59
2023-07-12T20:47:56.662Z,27.70
2023-07-12T20:50:28.358Z,27.71
2023-07-12T20:53:00.570Z,27.63
2023-07-12T20:55:30.425Z,27.54
2023-07-12T20:58:02.334Z,27.41
2023-07-12T21:00:48.037Z,27.38
2023-07-12T21:03:15.164Z,27.41
2023-07-12T21:05:42.005Z,27.40
2023-07-12T21:08:11.447Z,27.34
2023-07-12T21:10:40.789Z,27.31
2023-07-12T21:13:12.434Z,27.23
2023-07-12T21:15:43.464Z,27.03
2023-07-12T21:18:10.097Z,27.07
2023-07-12T21:20:38.965Z,27.09
2023-07-12T21:23:08.291Z,27.11
2023-07-12T21:25:36.984Z,27.07
2023-07-12T21:28:06.098Z,26.90
2023-07-12T21:30:36.207Z,26.83
2023-07-12T21:33:06.884Z,26.53
2023-07-12T21:35:33.630Z,26.41
2023-07-12T21:38:00.777Z,26.42
2023-07-12T21:40:27.610Z,26.42
2023-07-12T21:42:54.528Z,26.40
2023-07-12T21:45:21.445Z,26.40
2023-07-12T21:47:48.366Z,26.41
2023-07-12T21:50:17.548Z,26.18
2023-07-12T21:52:46.824Z,26.21
2023-07-12T21:55:15.782Z,26.28
2023-07-12T21:57:44.967Z,26.29
2023-07-12T22:00:21.942Z,26.26
2023-07-12T22:02:52.403Z,26.23
2023-07-12T22:05:19.272Z,26.13
2023-07-12T22:07:55.346Z,26.17
2023-07-12T22:10:28.150Z,26.19
2023-07-12T22:12:58.664Z,26.16
2023-07-12T22:15:26.782Z,25.93
2023-07-12T22:17:57.015Z,25.80
2023-07-12T22:20:24.291Z,25.94
2023-07-12T22:22:55.723Z,25.99
2023-07-12T22:25:22.873Z,25.99
2023-07-12T22:27:49.924Z,26.01
2023-07-12T22:30:27.495Z,25.98
2023-07-12T22:32:57.100Z,25.91
2023-07-12T22:35:28.895Z,25.81
2023-07-12T22:37:56.664Z,25.84
2023-07-12T22:40:24.762Z,25.95
2023-07-12T22:42:52.110Z,25.92
2023-07-12T22:45:22.685Z,25.84
2023-07-12T22:47:49.619Z,25.86
2023-07-12T22:50:19.162Z,25.68
2023-07-12T22:52:48.138Z,25.68
2023-07-12T22:55:15.176Z,25.71
2023-07-12T22:57:43.144Z,25.82
2023-07-12T23:00:16.502Z,25.79
2023-07-12T23:02:45.585Z,25.66
2023-07-12T23:05:13.545Z,25.69
2023-07-12T23:07:42.811Z,25.75
2023-07-12T23:10:14.111Z,25.82
2023-07-12T23:12:43.327Z,25.83
2023-07-12T23:15:17.116Z,25.76
2023-07-12T23:17:52.645Z,25.72
2023-07-12T23:20:21.548Z,25.77
2023-07-12T23:22:48.300Z,25.77
2023-07-12T23:25:26.348Z,25.70
2023-07-12T23:27:54.965Z,25.76
2023-07-12T23:30:25.416Z,25.70
2023-07-12T23:32:53.322Z,25.54
2023-07-12T23:35:23.732Z,25.34
2023-07-12T23:37:50.488Z,25.52
2023-07-12T23:40:17.189Z,25.63
2023-07-12T23:42:43.985Z,25.47
2023-07-12T23:45:13.402Z,25.32
2023-07-12T23:47:40.108Z,25.36
2023-07-12T23:50:07.713Z,25.43
2023-07-12T23:52:34.330Z,25.26
2023-07-12T23:55:03.981Z,24.98
2023-07-12T23:57:33.345Z,24.72
